Time;durP1;ratioP1;P1;durP2;ratioP2;P2;SDS_P1;SDS_P2;PMS_P1;PMS_P2;Temp;Humidity;BMP_temperature;BMP_pressure;BME280_temperature;BME280_humidity;BME280_pressure;Samples;Min_cycle;Max_cycle;Signal;HPM_P1;HPM_P2
2021/09/24 00:00:05;;;;;;;9.55;5.22;;;;;;;15.53;81.82;101501.84;5002257;28;20033;-76
2021/09/24 00:02:38;;;;;;;11.43;6.05;;;;;;;15.60;81.64;101509.00;5008249;28;20125;-76
2021/09/24 00:05:03;;;;;;;10.95;5.53;;;;;;;15.55;81.88;101501.66;5008002;28;20129;-76
2021/09/24 00:07:29;;;;;;;11.50;5.57;;;;;;;15.52;81.90;101502.00;5005141;28;20033;-76
2021/09/24 00:09:55;;;;;;;16.20;6.05;;;;;;;15.54;81.91;101500.06;5010460;28;20038;-76
2021/09/24 00:12:20;;;;;;;13.65;6.53;;;;;;;15.63;81.55;101496.38;4993389;28;20042;-76
2021/09/24 00:14:45;;;;;;;12.43;6.97;;;;;;;15.63;81.96;101495.56;5011870;28;20036;-76
2021/09/24 00:17:12;;;;;;;12.20;6.78;;;;;;;15.61;81.96;101493.13;4984283;28;20021;-76
2021/09/24 00:19:39;;;;;;;13.77;7.60;;;;;;;15.64;81.81;101495.41;4988806;28;20049;-76
2021/09/24 00:22:04;;;;;;;10.90;6.43;;;;;;;15.60;81.85;101490.72;4987855;28;20028;-76
2021/09/24 00:24:30;;;;;;;15.93;7.32;;;;;;;15.63;81.96;101485.13;5014826;28;20661;-76
2021/09/24 00:26:55;;;;;;;14.23;6.55;;;;;;;15.53;82.09;101496.59;4982333;28;20543;-76
2021/09/24 00:29:21;;;;;;;13.80;7.70;;;;;;;15.69;81.84;101487.88;5010782;28;20042;-77
2021/09/24 00:31:46;;;;;;;16.42;6.35;;;;;;;15.60;82.01;101491.53;4993207;28;20025;-76
2021/09/24 00:34:12;;;;;;;14.45;7.10;;;;;;;15.49;82.54;101479.66;5010369;28;20719;-76
2021/09/24 00:36:37;;;;;;;18.17;7.35;;;;;;;15.50;82.68;101488.28;5013890;28;20025;-75
2021/09/24 00:39:03;;;;;;;15.43;7.35;;;;;;;15.49;82.63;101486.69;4995522;28;20490;-76
2021/09/24 00:41:28;;;;;;;15.77;7.93;;;;;;;15.51;82.63;101472.44;5013507;28;20029;-76
2021/09/24 00:43:54;;;;;;;14.77;7.15;;;;;;;15.52;82.54;101475.88;4998343;28;20060;-76
2021/09/24 00:46:19;;;;;;;23.38;7.60;;;;;;;15.52;82.59;101481.09;4997892;28;20189;-76
2021/09/24 00:48:46;;;;;;;13.15;7.07;;;;;;;15.49;82.85;101476.22;4990877;28;20095;-76
2021/09/24 00:51:12;;;;;;;10.65;6.20;;;;;;;15.49;83.03;101478.84;4978385;28;20034;-76
2021/09/24 00:53:38;;;;;;;17.35;6.53;;;;;;;15.47;83.00;101473.78;5011583;28;20106;-75
2021/09/24 00:56:04;;;;;;;13.18;6.70;;;;;;;15.49;82.96;101474.41;4981289;28;20129;-76
2021/09/24 00:58:29;;;;;;;15.43;7.20;;;;;;;15.51;82.98;101471.63;5006592;28;20036;-76
2021/09/24 01:00:54;;;;;;;12.50;7.38;;;;;;;15.56;82.78;101477.16;5009797;28;20042;-75
2021/09/24 01:03:20;;;;;;;12.05;6.78;;;;;;;15.57;82.78;101473.56;4994010;28;20030;-76
2021/09/24 01:05:47;;;;;;;16.15;8.45;;;;;;;15.59;82.61;101471.59;5008240;28;20029;-76
2021/09/24 01:08:14;;;;;;;15.88;7.75;;;;;;;15.57;82.80;101476.16;5004416;28;20060;-76
2021/09/24 01:10:40;;;;;;;17.75;8.75;;;;;;;15.60;82.76;101460.16;4985719;28;20030;-76
2021/09/24 01:13:05;;;;;;;17.73;10.05;;;;;;;15.55;82.68;101459.84;4999647;28;20120;-76
2021/09/24 01:15:31;;;;;;;23.33;11.27;;;;;;;15.61;82.65;101469.59;5008655;28;20030;-76
2021/09/24 01:17:57;;;;;;;22.63;13.05;;;;;;;15.62;82.66;101465.22;4983719;28;20565;-76
2021/09/24 01:20:23;;;;;;;26.33;12.63;;;;;;;15.51;82.99;101464.59;5006901;28;20049;-76
2021/09/24 01:22:51;;;;;;;27.45;13.60;;;;;;;15.46;83.24;101459.06;4990422;28;20501;-75
2021/09/24 01:25:19;;;;;;;28.10;13.73;;;;;;;15.52;83.10;101449.72;5007762;28;20125;-76
2021/09/24 01:27:45;;;;;;;25.80;12.82;;;;;;;15.49;83.37;101456.13;5004482;28;20437;-76
2021/09/24 01:30:12;;;;;;;33.30;14.23;;;;;;;15.44;83.63;101452.41;4994795;28;20037;-75
2021/09/24 01:32:38;;;;;;;26.40;13.50;;;;;;;15.38;83.99;101453.91;4992370;28;20107;-76
2021/09/24 01:35:06;;;;;;;25.08;13.05;;;;;;;15.40;83.83;101444.09;5014538;28;20037;-77
2021/09/24 01:37:32;;;;;;;30.15;14.23;;;;;;;15.48;83.65;101443.22;4990573;28;20052;-76
2021/09/24 01:40:01;;;;;;;28.98;15.50;;;;;;;15.42;83.77;101447.34;5010249;28;20076;-76
2021/09/24 01:42:26;;;;;;;29.25;15.25;;;;;;;15.46;83.47;101450.44;4975090;28;20032;-76
2021/09/24 01:44:52;;;;;;;31.65;14.82;;;;;;;15.56;83.31;101440.59;4994135;28;20461;-76
2021/09/24 01:47:18;;;;;;;34.72;17.38;;;;;;;15.64;83.14;101437.91;5004805;28;20116;-77
2021/09/24 01:49:44;;;;;;;38.70;15.82;;;;;;;15.48;83.67;101443.22;4990364;28;20052;-76
2021/09/24 01:52:10;;;;;;;36.50;15.80;;;;;;;15.46;83.94;101446.00;5002123;28;20542;-77
2021/09/24 01:54:35;;;;;;;32.03;16.75;;;;;;;15.46;84.04;101443.38;5010438;28;20529;-76
2021/09/24 01:57:01;;;;;;;37.25;18.50;;;;;;;15.56;83.54;101443.19;4986232;28;20088;-76
2021/09/24 01:59:26;;;;;;;42.45;18.38;;;;;;;15.56;83.64;101436.16;5014958;28;20030;-76
2021/09/24 02:01:52;;;;;;;34.08;17.38;;;;;;;15.45;83.96;101441.78;4982538;28;20029;-76
2021/09/24 02:04:18;;;;;;;35.83;19.10;;;;;;;15.48;84.05;101441.44;4981692;28;20034;-76
2021/09/24 02:06:44;;;;;;;37.10;19.30;;;;;;;15.42;84.12;101436.88;4982069;28;20552;-76
2021/09/24 02:09:10;;;;;;;34.25;17.63;;;;;;;15.41;84.60;101427.44;4990973;28;20120;-76
2021/09/24 02:11:36;;;;;;;38.55;17.40;;;;;;;15.38;84.77;101431.19;4980361;28;20496;-76
2021/09/24 02:14:01;;;;;;;36.72;18.02;;;;;;;15.38;84.38;101436.41;4972896;28;20041;-76
2021/09/24 02:16:27;;;;;;;33.25;16.70;;;;;;;15.38;84.70;101440.84;5001874;28;20025;-76
2021/09/24 02:18:53;;;;;;;32.45;17.00;;;;;;;15.42;84.42;101441.31;4991337;28;20041;-76
2021/09/24 02:21:19;;;;;;;32.90;17.30;;;;;;;15.44;84.46;101437.53;4981397;28;20083;-76
2021/09/24 02:23:45;;;;;;;36.53;19.05;;;;;;;15.40;84.63;101433.63;4994457;28;20037;-76
2021/09/24 02:26:10;;;;;;;37.70;19.67;;;;;;;15.48;84.55;101433.59;4988741;28;20834;-78
2021/09/24 02:28:36;;;;;;;42.38;18.50;;;;;;;15.43;84.60;101430.69;4990724;28;20125;-77
2021/09/24 02:31:01;;;;;;;40.22;21.35;;;;;;;15.51;84.45;101432.44;4973309;28;20030;-77
2021/09/24 02:33:27;;;;;;;45.42;22.60;;;;;;;15.48;84.29;101438.84;4984935;28;20045;-77
2021/09/24 02:35:53;;;;;;;48.38;22.25;;;;;;;15.53;84.40;101436.50;4988399;28;20496;-76
2021/09/24 02:38:18;;;;;;;49.97;25.00;;;;;;;15.42;84.75;101431.66;5004665;28;20041;-76
2021/09/24 02:40:44;;;;;;;56.70;26.58;;;;;;;15.36;84.97;101425.31;4989646;28;20398;-76
2021/09/24 02:43:10;;;;;;;59.95;28.92;;;;;;;15.34;85.27;101426.50;4993249;28;20085;-76
2021/09/24 02:45:36;;;;;;;57.80;27.80;;;;;;;15.51;84.91;101424.59;5005088;28;20026;-76
2021/09/24 02:48:01;;;;;;;65.10;29.05;;;;;;;15.48;84.66;101420.53;4995773;28;20635;-76
2021/09/24 02:50:27;;;;;;;58.63;29.52;;;;;;;15.45;84.93;101430.53;5005553;28;20034;-75
2021/09/24 02:52:52;;;;;;;62.95;30.88;;;;;;;15.48;84.87;101430.16;5013198;28;20153;-77
2021/09/24 02:55:20;;;;;;;68.10;29.02;;;;;;;15.43;84.97;101425.47;5002304;28;20060;-76
2021/09/24 02:57:46;;;;;;;58.60;27.70;;;;;;;15.45;84.97;101422.69;4995012;28;20034;-77
2021/09/24 03:00:12;;;;;;;58.58;27.13;;;;;;;15.53;84.75;101420.00;4999816;28;20034;-76
2021/09/24 03:02:38;;;;;;;48.30;25.52;;;;;;;15.40;85.05;101422.38;4993229;28;20088;-76
2021/09/24 03:05:05;;;;;;;61.75;27.52;;;;;;;15.33;85.47;101424.84;5013304;28;20506;-76
2021/09/24 03:07:30;;;;;;;49.50;23.75;;;;;;;15.31;85.60;101424.22;4991979;28;20117;-77
2021/09/24 03:09:56;;;;;;;57.75;27.13;;;;;;;15.31;85.62;101421.59;4998636;28;20120;-77
2021/09/24 03:12:22;;;;;;;50.45;23.80;;;;;;;15.32;85.66;101424.03;4997452;28;20245;-76
2021/09/24 03:14:47;;;;;;;52.60;23.63;;;;;;;15.33;85.67;101424.84;5019129;28;20029;-77
2021/09/24 03:17:13;;;;;;;48.05;22.48;;;;;;;15.30;85.75;101422.59;4981186;28;20033;-76
2021/09/24 03:19:38;;;;;;;46.35;21.15;;;;;;;15.27;86.26;101431.56;4997660;28;20394;-76
2021/09/24 03:22:04;;;;;;;43.22;21.02;;;;;;;15.30;86.01;101427.81;4996171;28;20033;-76
2021/09/24 03:24:29;;;;;;;43.60;20.88;;;;;;;15.40;85.77;101430.22;5020314;28;20048;-77
2021/09/24 03:26:55;;;;;;;41.17;19.75;;;;;;;15.36;85.62;101424.53;5009440;28;20034;-77
2021/09/24 03:29:21;;;;;;;41.00;20.10;;;;;;;15.32;85.79;101431.06;5014255;28;20037;-76
2021/09/24 03:31:46;;;;;;;43.55;19.98;;;;;;;15.37;85.78;101420.94;5015835;28;20120;-76
2021/09/24 03:34:12;;;;;;;43.10;20.33;;;;;;;15.32;85.86;101421.44;4995472;28;20057;-76
2021/09/24 03:36:38;;;;;;;40.35;19.13;;;;;;;15.34;85.36;101418.66;5007360;28;20404;-76
2021/09/24 03:39:10;;;;;;;38.03;17.60;;;;;;;15.33;85.60;101427.47;4993811;28;20124;-76
2021/09/24 03:41:35;;;;;;;37.60;17.17;;;;;;;15.24;86.09;101424.09;4994778;28;20048;-76
2021/09/24 03:44:01;;;;;;;33.90;17.70;;;;;;;15.22;86.29;101423.47;4996015;28;20037;-76
2021/09/24 03:46:26;;;;;;;36.65;17.33;;;;;;;15.20;86.40;101428.03;5014320;28;20525;-77
2021/09/24 03:48:52;;;;;;;37.33;18.95;;;;;;;15.24;86.20;101426.72;5007040;28;20037;-76
2021/09/24 03:51:17;;;;;;;40.70;18.88;;;;;;;15.25;86.25;101420.50;5011476;28;20033;-76
2021/09/24 03:53:43;;;;;;;36.30;17.80;;;;;;;15.24;86.13;101428.50;4994206;28;20156;-76
2021/09/24 03:56:08;;;;;;;36.28;18.13;;;;;;;15.30;85.32;101431.25;4995635;28;20061;-76
2021/09/24 03:58:34;;;;;;;36.72;18.20;;;;;;;15.28;85.34;101435.84;5011596;28;20445;-76
2021/09/24 04:00:59;;;;;;;31.85;16.15;;;;;;;15.20;86.18;101430.66;4991845;28;20042;-76
2021/09/24 04:03:25;;;;;;;38.90;19.63;;;;;;;15.32;85.18;101434.50;4992464;28;20040;-76
2021/09/24 04:05:50;;;;;;;33.08;17.95;;;;;;;15.22;85.41;101435.69;4974707;28;20034;-76
2021/09/24 04:08:16;;;;;;;38.33;19.23;;;;;;;15.18;85.61;101443.06;5010316;28;20033;-77
2021/09/24 04:10:42;;;;;;;33.55;17.95;;;;;;;15.21;85.73;101429.66;5009734;28;20038;-76
2021/09/24 04:13:08;;;;;;;40.78;18.45;;;;;;;15.21;85.74;101428.84;5010433;28;20091;-76
2021/09/24 04:15:33;;;;;;;33.85;16.05;;;;;;;15.14;86.03;101431.31;4997191;28;20729;-76
2021/09/24 04:17:59;;;;;;;38.88;18.63;;;;;;;15.20;85.81;101441.09;5011251;28;20030;-77
2021/09/24 04:20:24;;;;;;;31.95;16.67;;;;;;;15.13;86.32;101442.75;4993825;28;20172;-76
2021/09/24 04:22:50;;;;;;;34.70;16.40;;;;;;;15.10;86.12;101436.06;5010284;28;20068;-76
2021/09/24 04:25:17;;;;;;;28.00;14.68;;;;;;;15.05;86.67;101440.16;5000269;28;20034;-76
2021/09/24 04:27:42;;;;;;;33.25;16.95;;;;;;;15.05;86.47;101445.41;4994172;28;20100;-76
2021/09/24 04:30:08;;;;;;;36.33;18.20;;;;;;;15.07;86.09;101443.44;4993218;28;20477;-76
2021/09/24 04:32:34;;;;;;;35.92;18.90;;;;;;;15.04;86.45;101451.63;4994043;28;20529;-76
2021/09/24 04:35:01;;;;;;;35.40;16.90;;;;;;;14.98;86.90;101443.47;5001261;28;20120;-76
2021/09/24 04:37:27;;;;;;;39.40;17.27;;;;;;;15.02;86.60;101446.56;5012978;28;20021;-76
2021/09/24 04:39:52;;;;;;;34.53;18.42;;;;;;;14.98;87.03;101447.88;4994626;28;20034;-76
2021/09/24 04:42:18;;;;;;;33.95;16.98;;;;;;;14.95;87.02;101446.41;5008519;28;20403;-76
2021/09/24 04:44:43;;;;;;;34.15;17.13;;;;;;;15.01;87.03;101454.56;4991866;28;20025;-76
2021/09/24 04:47:09;;;;;;;32.80;16.55;;;;;;;14.98;86.82;101453.91;4997978;28;20034;-76
2021/09/24 04:49:34;;;;;;;46.45;19.48;;;;;;;14.93;86.97;101452.78;4993012;28;20048;-76
2021/09/24 04:52:00;;;;;;;32.22;16.85;;;;;;;14.95;86.98;101459.47;5010735;28;20033;-77
2021/09/24 04:54:25;;;;;;;38.00;18.17;;;;;;;14.92;87.10;101454.59;5007790;28;20088;-77
2021/09/24 04:56:51;;;;;;;30.70;15.85;;;;;;;14.86;87.39;101455.28;4979440;28;20033;-76
2021/09/24 04:59:16;;;;;;;33.70;18.92;;;;;;;14.87;87.40;101450.88;4990031;28;20041;-75
2021/09/24 05:01:42;;;;;;;33.03;17.70;;;;;;;14.96;87.07;101449.84;4979128;28;20041;-75
2021/09/24 05:04:07;;;;;;;35.85;18.55;;;;;;;14.92;86.85;101446.75;4994869;28;20037;-76
2021/09/24 05:06:33;;;;;;;34.55;19.00;;;;;;;14.87;87.42;101453.47;5010342;28;20088;-76
2021/09/24 05:08:58;;;;;;;40.47;19.80;;;;;;;14.79;87.55;101456.94;5010677;28;20034;-76
2021/09/24 05:11:24;;;;;;;42.90;17.35;;;;;;;14.67;88.19;101453.84;4995926;28;20029;-76
2021/09/24 05:13:49;;;;;;;39.60;18.80;;;;;;;14.74;87.99;101454.81;5010546;28;20040;-76
2021/09/24 05:16:15;;;;;;;37.95;19.55;;;;;;;14.85;87.65;101458.06;5013494;28;20038;-76
2021/09/24 05:18:42;;;;;;;39.90;19.55;;;;;;;14.80;87.49;101453.31;5008213;28;20095;-76
2021/09/24 05:21:08;;;;;;;41.22;20.08;;;;;;;14.76;87.60;101459.84;4979374;28;20112;-76
2021/09/24 05:23:34;;;;;;;38.17;19.45;;;;;;;14.68;88.10;101458.09;5010408;28;20455;-76
2021/09/24 05:25:59;;;;;;;34.53;18.73;;;;;;;14.83;87.59;101455.59;4994095;28;20056;-76
2021/09/24 05:28:25;;;;;;;41.13;20.02;;;;;;;14.81;87.62;101456.75;5012668;28;20041;-77
2021/09/24 05:30:51;;;;;;;34.67;19.55;;;;;;;14.79;87.69;101459.53;5008028;28;20121;-76
2021/09/24 05:33:16;;;;;;;39.40;21.38;;;;;;;14.88;87.31;101455.09;5009089;28;20060;-76
2021/09/24 05:35:42;;;;;;;37.67;19.70;;;;;;;14.80;87.26;101458.53;4992032;28;20034;-75
2021/09/24 05:38:07;;;;;;;41.67;21.08;;;;;;;14.73;87.76;101462.78;4989484;28;20041;-77
2021/09/24 05:40:33;;;;;;;37.92;20.92;;;;;;;14.73;87.93;101470.63;5009443;28;20203;-76
2021/09/24 05:42:58;;;;;;;38.40;20.25;;;;;;;14.80;87.56;101461.16;5007707;28;20034;-75
2021/09/24 05:45:24;;;;;;;41.28;21.33;;;;;;;14.70;87.73;101474.41;5010669;28;20042;-76
2021/09/24 05:47:49;;;;;;;40.83;20.33;;;;;;;14.85;87.60;101464.09;4989751;28;20033;-75
2021/09/24 05:50:15;;;;;;;33.80;19.88;;;;;;;14.79;87.00;101473.41;4982830;28;20045;-76
2021/09/24 05:52:52;;;;;;;30.60;17.60;;;;;;;14.73;87.52;101481.06;5006344;28;20045;-76
2021/09/24 05:55:20;;;;;;;31.90;19.98;;;;;;;14.68;87.68;101467.72;5015082;28;21314;-76
2021/09/24 05:57:47;;;;;;;36.13;19.40;;;;;;;14.81;86.85;101467.22;5004668;28;20040;-76
2021/09/24 06:00:15;;;;;;;32.90;18.08;;;;;;;14.78;86.46;101461.31;5007054;28;20117;-74
2021/09/24 06:02:45;;;;;;;32.42;18.60;;;;;;;14.65;86.65;101461.03;4974918;28;20643;-76
2021/09/24 06:05:11;;;;;;;30.13;17.50;;;;;;;14.58;87.46;101460.88;4993104;28;20839;-76
2021/09/24 06:07:36;;;;;;;29.00;17.35;;;;;;;14.61;87.20;101459.72;4997096;28;20036;-76
2021/09/24 06:10:04;;;;;;;31.38;16.75;;;;;;;14.57;86.81;101459.25;4980382;28;20045;-76
2021/09/24 06:12:30;;;;;;;29.05;16.20;;;;;;;14.45;87.79;101460.56;5011984;28;20479;-76
2021/09/24 06:14:57;;;;;;;30.55;15.68;;;;;;;14.51;87.64;101457.28;4984074;28;20046;-76
2021/09/24 06:17:23;;;;;;;32.13;17.52;;;;;;;14.53;87.33;101465.75;4991065;28;20092;-76
2021/09/24 06:19:49;;;;;;;36.63;19.05;;;;;;;14.54;87.55;101454.34;4998290;28;20026;-76
2021/09/24 06:22:15;;;;;;;31.45;17.38;;;;;;;14.56;87.68;101456.75;5000623;28;20095;-76
2021/09/24 06:24:44;;;;;;;37.20;17.60;;;;;;;14.53;88.12;101454.50;5015852;28;20077;-76
2021/09/24 06:27:14;;;;;;;32.35;17.48;;;;;;;14.54;88.36;101461.34;5010288;28;20026;-75
2021/09/24 06:29:41;;;;;;;38.25;18.88;;;;;;;14.61;87.99;101457.13;5011609;28;20131;-77
2021/09/24 06:32:07;;;;;;;34.97;18.17;;;;;;;14.52;88.09;101464.13;5012735;28;20030;-76
2021/09/24 06:34:32;;;;;;;38.65;20.42;;;;;;;14.48;88.82;101455.00;4981936;28;20034;-76
2021/09/24 06:36:58;;;;;;;43.88;21.80;;;;;;;14.46;89.04;101446.50;4990726;28;20376;-75
2021/09/24 06:39:23;;;;;;;38.63;18.95;;;;;;;14.55;88.47;101445.53;5019424;28;20441;-77
2021/09/24 06:41:49;;;;;;;47.88;23.70;;;;;;;14.60;88.51;101451.09;5001779;28;20453;-77
2021/09/24 06:44:15;;;;;;;49.40;21.75;;;;;;;14.57;88.41;101445.38;5014085;28;20037;-76
2021/09/24 06:46:40;;;;;;;40.13;22.50;;;;;;;14.61;88.52;101444.06;4999866;28;20037;-76
2021/09/24 06:49:06;;;;;;;43.13;22.35;;;;;;;14.66;88.52;101454.84;5006162;28;20040;-76
2021/09/24 06:51:31;;;;;;;50.97;23.35;;;;;;;14.70;88.22;101456.13;4996719;28;20041;-76
2021/09/24 06:53:57;;;;;;;44.50;21.65;;;;;;;14.77;88.40;101453.66;5014470;28;20041;-77
2021/09/24 06:56:22;;;;;;;45.88;22.95;;;;;;;14.84;87.62;101457.22;4990982;28;20038;-76
2021/09/24 06:58:48;;;;;;;57.38;26.45;;;;;;;14.84;88.01;101461.63;5011132;28;20037;-76
2021/09/24 07:01:13;;;;;;;47.95;25.27;;;;;;;14.79;88.00;101452.50;4999939;28;20033;-76
2021/09/24 07:03:39;;;;;;;56.17;25.30;;;;;;;14.82;88.52;101455.75;4991492;28;20561;-76
2021/09/24 07:06:04;;;;;;;62.65;24.90;;;;;;;14.77;88.19;101458.91;4976325;28;20034;-76
2021/09/24 07:08:30;;;;;;;51.60;24.35;;;;;;;14.84;88.05;101457.22;4974040;28;20033;-76
2021/09/24 07:10:55;;;;;;;56.03;27.42;;;;;;;14.77;88.44;101457.09;5012433;28;20045;-76
2021/09/24 07:13:21;;;;;;;42.70;23.33;;;;;;;14.86;88.42;101454.44;5002627;28;20034;-76
2021/09/24 07:15:46;;;;;;;55.22;25.75;;;;;;;14.84;88.01;101452.00;5010692;28;20021;-76
2021/09/24 07:18:12;;;;;;;47.30;23.95;;;;;;;14.90;87.72;101461.78;4992246;28;20624;-76
2021/09/24 07:20:38;;;;;;;50.92;23.60;;;;;;;14.91;87.92;101463.41;4996406;28;20030;-76
2021/09/24 07:23:03;;;;;;;47.97;22.60;;;;;;;14.84;88.23;101466.84;4996937;28;20034;-76
2021/09/24 07:25:29;;;;;;;47.03;22.45;;;;;;;14.86;88.06;101462.28;5006904;28;20037;-75
2021/09/24 07:27:54;;;;;;;51.13;23.58;;;;;;;14.85;88.16;101460.66;4995548;28;20395;-76
2021/09/24 07:30:20;;;;;;;41.33;21.00;;;;;;;14.86;88.49;101455.28;4993605;28;20041;-76
2021/09/24 07:32:45;;;;;;;44.58;23.20;;;;;;;14.94;87.81;101460.47;4974384;28;20038;-76
2021/09/24 07:35:11;;;;;;;54.35;23.45;;;;;;;15.04;87.46;101455.03;4972752;28;20080;-72
2021/09/24 07:37:36;;;;;;;51.20;22.27;;;;;;;15.07;87.27;101459.09;5006037;28;20546;-76
2021/09/24 07:40:20;;;;;;;53.95;23.15;;;;;;;14.95;87.90;101464.69;4991507;28;20045;-75
2021/09/24 07:43:04;;;;;;;43.30;22.20;;;;;;;14.93;87.97;101455.41;5008007;28;20131;-75
2021/09/24 07:45:30;;;;;;;43.70;21.25;;;;;;;14.99;87.44;101458.16;4995386;28;20037;-76
2021/09/24 07:48:13;;;;;;;48.63;21.80;;;;;;;15.02;87.31;101462.22;5007076;28;20056;-75
2021/09/24 07:50:39;;;;;;;44.75;22.73;;;;;;;15.10;87.19;101462.19;5009525;28;20041;-77
2021/09/24 07:53:05;;;;;;;47.15;20.98;;;;;;;15.07;87.16;101466.94;5003383;28;20032;-76
2021/09/24 07:55:30;;;;;;;43.90;20.67;;;;;;;15.06;87.21;101466.13;5001686;28;20052;-76
2021/09/24 07:57:56;;;;;;;46.58;20.73;;;;;;;14.96;87.73;101470.75;5013966;28;20038;-76
2021/09/24 08:00:23;;;;;;;40.80;19.75;;;;;;;14.95;88.20;101474.31;5008115;28;20492;-76
2021/09/24 08:02:50;;;;;;;47.00;21.40;;;;;;;14.97;88.35;101475.81;4980147;28;20064;-75
2021/09/24 08:05:16;;;;;;;45.40;21.48;;;;;;;15.19;87.13;101471.63;5007180;28;20626;-76
2021/09/24 08:07:41;;;;;;;48.13;21.08;;;;;;;15.24;86.88;101472.91;4993515;28;20277;-75
2021/09/24 08:10:07;;;;;;;48.25;21.05;;;;;;;15.23;87.05;101476.50;4994569;28;20453;-76
2021/09/24 08:12:33;;;;;;;43.45;20.13;;;;;;;15.26;87.14;101476.19;4997897;28;20046;-74
2021/09/24 08:14:58;;;;;;;44.10;20.42;;;;;;;15.26;86.96;101481.41;4993381;28;20049;-76
2021/09/24 08:17:24;;;;;;;43.85;19.70;;;;;;;15.28;86.53;101484.66;4993938;28;20062;-76
2021/09/24 08:19:49;;;;;;;41.22;18.95;;;;;;;15.26;86.73;101487.44;4979276;28;20115;-77
2021/09/24 08:22:15;;;;;;;42.78;19.48;;;;;;;15.31;86.37;101490.38;4999606;28;20061;-75
2021/09/24 08:24:40;;;;;;;39.33;18.27;;;;;;;15.23;87.08;101492.19;4998019;28;20100;-77
2021/09/24 08:27:06;;;;;;;41.25;18.50;;;;;;;15.23;86.75;101493.00;5010042;28;20081;-76
2021/09/24 08:29:32;;;;;;;41.22;20.05;;;;;;;15.26;86.36;101491.84;4997963;28;20111;-76
2021/09/24 08:31:57;;;;;;;36.90;17.52;;;;;;;15.35;86.61;101491.66;5011220;28;20662;-76
2021/09/24 08:34:23;;;;;;;43.58;21.27;;;;;;;15.50;86.11;101494.34;5006380;28;20553;-76
2021/09/24 08:36:48;;;;;;;29.73;15.85;;;;;;;15.45;86.00;101493.25;4992319;28;20026;-77
2021/09/24 08:39:14;;;;;;;33.38;17.15;;;;;;;15.70;85.77;101494.72;4976199;28;20099;-77
2021/09/24 08:41:40;;;;;;;37.25;16.52;;;;;;;15.72;85.25;101486.69;4997969;28;20033;-76
2021/09/24 08:44:06;;;;;;;36.50;17.58;;;;;;;15.75;85.02;101487.19;5010883;28;20580;-76
2021/09/24 08:46:34;;;;;;;31.58;14.70;;;;;;;15.80;84.71;101486.66;5015083;28;20033;-77
2021/09/24 08:49:03;;;;;;;36.45;16.48;;;;;;;16.00;84.64;101491.47;5012181;28;20065;-77
2021/09/24 08:51:28;;;;;;;29.60;13.93;;;;;;;16.10;83.59;101492.03;5005026;28;20674;-77
2021/09/24 08:53:54;;;;;;;31.05;14.50;;;;;;;16.07;83.82;101492.38;4977167;28;20037;-77
2021/09/24 08:56:19;;;;;;;28.63;14.85;;;;;;;16.16;82.80;101493.94;4978925;28;20641;-76
2021/09/24 08:58:44;;;;;;;24.23;13.57;;;;;;;16.19;82.91;101492.78;4979017;28;20473;-76
2021/09/24 09:01:10;;;;;;;21.45;12.02;;;;;;;16.29;81.66;101480.25;4990260;28;20402;-76
2021/09/24 09:03:41;;;;;;;22.38;11.20;;;;;;;16.51;81.22;101475.97;4990095;28;20087;-76
2021/09/24 09:06:08;;;;;;;23.95;11.65;;;;;;;16.65;79.76;101479.59;5000351;28;20124;-77
2021/09/24 09:08:34;;;;;;;24.00;10.65;;;;;;;16.71;79.04;101477.06;4975513;28;20052;-77
2021/09/24 09:11:19;;;;;;;17.77;10.43;;;;;;;16.75;79.91;101477.53;4995983;28;20493;-78
2021/09/24 09:13:57;;;;;;;20.25;9.63;;;;;;;16.93;78.89;101475.41;4988196;28;20494;-74
2021/09/24 09:16:24;;;;;;;20.52;10.73;;;;;;;17.08;78.81;101477.16;4999402;28;20037;-77
2021/09/24 09:19:04;;;;;;;20.55;9.70;;;;;;;17.16;77.83;101471.00;5008936;28;20512;-76
2021/09/24 09:21:30;;;;;;;16.63;9.15;;;;;;;17.25;76.78;101473.38;5013164;28;20079;-77
2021/09/24 09:23:56;;;;;;;20.65;10.15;;;;;;;17.18;76.84;101475.09;4969392;28;20041;-77
2021/09/24 09:26:22;;;;;;;16.45;8.98;;;;;;;17.28;77.04;101473.00;5008747;28;20034;-78
2021/09/24 09:28:47;;;;;;;14.63;8.18;;;;;;;17.17;76.26;101473.47;4971622;28;20072;-78
2021/09/24 09:31:18;;;;;;;12.55;7.70;;;;;;;17.17;76.59;101475.28;4989332;28;20136;-77
2021/09/24 09:33:44;;;;;;;16.55;8.48;;;;;;;17.28;75.80;101477.44;4989549;28;20033;-78
2021/09/24 09:36:10;;;;;;;14.50;9.35;;;;;;;17.22;76.63;101484.22;4980865;28;20060;-79
2021/09/24 09:38:41;;;;;;;15.30;7.55;;;;;;;17.26;76.19;101477.59;4992796;28;20034;-78
2021/09/24 09:41:10;;;;;;;17.73;7.63;;;;;;;17.39;76.06;101478.78;4993271;28;20040;-77
2021/09/24 09:43:38;;;;;;;17.45;8.15;;;;;;;17.47;75.86;101474.19;4981064;28;20041;-78
2021/09/24 09:46:06;;;;;;;17.65;8.43;;;;;;;17.42;76.06;101486.25;4997113;28;20457;-78
2021/09/24 09:48:32;;;;;;;15.90;8.32;;;;;;;17.39;75.95;101478.78;4990452;28;20146;-78
2021/09/24 09:50:58;;;;;;;15.85;9.23;;;;;;;17.43;75.55;101480.81;5010238;28;20033;-79
2021/09/24 09:53:23;;;;;;;22.05;9.18;;;;;;;17.46;75.43;101475.22;4996277;28;20475;-78
2021/09/24 09:55:53;;;;;;;12.77;7.05;;;;;;;17.43;75.87;101469.53;5003126;28;20479;-77
2021/09/24 09:58:21;;;;;;;17.40;9.75;;;;;;;17.38;76.41;101469.25;5016137;28;20052;-76
2021/09/24 10:01:09;;;;;;;16.05;7.88;;;;;;;17.50;75.73;101475.66;4978960;28;20149;-77
2021/09/24 10:03:52;;;;;;;18.02;8.52;;;;;;;17.51;74.49;101472.03;4991849;28;20045;-77
2021/09/24 10:06:29;;;;;;;17.85;8.18;;;;;;;17.50;74.49;101465.97;5008577;28;20068;-76
2021/09/24 10:09:03;;;;;;;13.48;7.05;;;;;;;17.55;74.52;101461.97;5010762;28;20033;-79
2021/09/24 10:11:34;;;;;;;14.18;6.82;;;;;;;17.71;73.66;101461.75;4978537;28;20470;-76
2021/09/24 10:14:06;;;;;;;12.98;6.70;;;;;;;17.84;73.48;101448.78;5003444;28;20050;-77
2021/09/24 10:16:37;;;;;;;16.33;6.93;;;;;;;17.86;73.11;101443.38;5000054;28;20041;-77
2021/09/24 10:19:03;;;;;;;10.70;6.80;;;;;;;17.97;73.01;101444.63;4998628;28;20121;-80
2021/09/24 10:21:28;;;;;;;9.35;5.18;;;;;;;17.96;72.81;101445.66;4999438;28;20088;-78
2021/09/24 10:23:55;;;;;;;14.68;7.65;;;;;;;18.03;72.32;101447.34;5002723;28;20112;-78
2021/09/24 10:26:31;;;;;;;11.20;6.43;;;;;;;18.12;72.59;101444.56;5003269;28;20052;-78
2021/09/24 10:29:21;;;;;;;12.10;5.78;;;;;;;18.22;72.12;101442.44;4995310;28;20037;-78
2021/09/24 10:31:50;;;;;;;12.32;5.32;;;;;;;18.18;71.94;101435.94;4978479;28;20104;-75
2021/09/24 10:34:17;;;;;;;12.82;5.90;;;;;;;18.26;71.01;101441.03;4992613;28;20038;-77
2021/09/24 10:36:55;;;;;;;7.80;4.95;;;;;;;18.14;72.01;101434.69;4990970;28;20033;-76
2021/09/24 10:39:29;;;;;;;10.20;4.82;;;;;;;18.22;72.33;101440.63;5000523;28;20044;-76
2021/09/24 10:42:13;;;;;;;10.98;5.20;;;;;;;18.23;72.11;101442.25;5007878;28;20058;-75
2021/09/24 10:45:29;;;;;;;11.73;4.55;;;;;;;18.33;71.17;101448.94;5002361;28;20529;-76
2021/09/24 10:48:05;;;;;;;7.90;3.97;;;;;;;18.40;70.39;101444.56;4981666;28;20157;-76
2021/09/24 10:50:30;;;;;;;11.93;4.03;;;;;;;18.61;70.08;101447.13;4999744;28;20364;-77
2021/09/24 10:53:11;;;;;;;9.82;3.97;;;;;;;18.69;70.74;101440.91;4997841;28;20121;-77
2021/09/24 10:55:48;;;;;;;9.18;3.60;;;;;;;18.83;70.76;101442.59;5013482;28;20045;-77
2021/09/24 10:58:26;;;;;;;8.40;4.53;;;;;;;18.80;68.91;101436.94;5007500;28;20161;-77
2021/09/24 11:00:53;;;;;;;9.77;3.50;;;;;;;18.83;69.18;101431.28;4988528;28;20089;-77
2021/09/24 11:03:22;;;;;;;9.23;3.53;;;;;;;18.78;68.44;101431.88;5011280;28;20126;-78
2021/09/24 11:05:52;;;;;;;5.10;3.15;;;;;;;18.74;69.34;101429.81;5006582;28;20478;-77
2021/09/24 11:08:42;;;;;;;8.52;3.65;;;;;;;18.80;69.43;101427.25;5018698;28;20064;-77
2021/09/24 11:11:23;;;;;;;8.73;3.65;;;;;;;18.83;69.68;101418.16;4997189;28;20517;-79